sensor_id;sensor_type;location;lat;lon;timestamp;P1;durP1;ratioP1;P2;durP2;ratioP2
26540;SDS011;14206;50.202;10.948;2022-11-12T00:01:20;5.60;;;4.75;;
26540;SDS011;14206;50.202;10.948;2022-11-12T00:04:16;4.88;;;4.35;;
26540;SDS011;14206;50.202;10.948;2022-11-12T00:07:02;4.65;;;4.18;;
26540;SDS011;14206;50.202;10.948;2022-11-12T00:09:53;4.93;;;4.43;;
26540;SDS011;14206;50.202;10.948;2022-11-12T00:12:38;4.40;;;3.90;;
26540;SDS011;14206;50.202;10.948;2022-11-12T00:15:23;5.18;;;4.68;;
26540;SDS011;14206;50.202;10.948;2022-11-12T00:18:09;5.20;;;4.70;;
26540;SDS011;14206;50.202;10.948;2022-11-12T00:20:55;5.25;;;4.75;;
26540;SDS011;14206;50.202;10.948;2022-11-12T00:23:40;4.65;;;4.15;;
26540;SDS011;14206;50.202;10.948;2022-11-12T00:26:26;4.45;;;3.83;;
26540;SDS011;14206;50.202;10.948;2022-11-12T00:29:11;4.30;;;3.90;;
26540;SDS011;14206;50.202;10.948;2022-11-12T00:31:57;4.38;;;3.97;;
26540;SDS011;14206;50.202;10.948;2022-11-12T00:37:27;5.05;;;4.55;;
26540;SDS011;14206;50.202;10.948;2022-11-12T00:40:13;4.93;;;4.35;;
26540;SDS011;14206;50.202;10.948;2022-11-12T00:42:58;4.60;;;4.13;;
26540;SDS011;14206;50.202;10.948;2022-11-12T00:45:44;4.38;;;3.78;;
26540;SDS011;14206;50.202;10.948;2022-11-12T00:48:35;10.20;;;4.18;;
26540;SDS011;14206;50.202;10.948;2022-11-12T00:51:20;6.43;;;4.57;;
26540;SDS011;14206;50.202;10.948;2022-11-12T00:54:05;4.45;;;4.03;;
26540;SDS011;14206;50.202;10.948;2022-11-12T00:56:51;5.95;;;4.40;;
26540;SDS011;14206;50.202;10.948;2022-11-12T00:59:36;5.63;;;3.72;;
26540;SDS011;14206;50.202;10.948;2022-11-12T01:02:22;4.05;;;3.65;;
26540;SDS011;14206;50.202;10.948;2022-11-12T01:07:52;4.70;;;4.20;;
26540;SDS011;14206;50.202;10.948;2022-11-12T01:10:40;5.20;;;4.53;;
26540;SDS011;14206;50.202;10.948;2022-11-12T01:13:25;5.30;;;4.57;;
26540;SDS011;14206;50.202;10.948;2022-11-12T01:16:17;4.82;;;4.30;;
26540;SDS011;14206;50.202;10.948;2022-11-12T01:19:06;5.57;;;4.43;;
26540;SDS011;14206;50.202;10.948;2022-11-12T01:21:53;4.50;;;4.10;;
26540;SDS011;14206;50.202;10.948;2022-11-12T01:24:38;4.45;;;4.05;;
26540;SDS011;14206;50.202;10.948;2022-11-12T01:27:24;4.68;;;4.20;;
26540;SDS011;14206;50.202;10.948;2022-11-12T01:30:09;5.18;;;4.10;;
26540;SDS011;14206;50.202;10.948;2022-11-12T01:32:55;4.57;;;4.00;;
26540;SDS011;14206;50.202;10.948;2022-11-12T01:35:40;4.10;;;3.70;;
26540;SDS011;14206;50.202;10.948;2022-11-12T01:38:26;4.43;;;4.03;;
26540;SDS011;14206;50.202;10.948;2022-11-12T01:41:14;4.85;;;3.95;;
26540;SDS011;14206;50.202;10.948;2022-11-12T01:44:08;5.40;;;4.53;;
26540;SDS011;14206;50.202;10.948;2022-11-12T01:53:02;4.80;;;4.35;;
26540;SDS011;14206;50.202;10.948;2022-11-12T01:55:52;4.75;;;3.90;;
26540;SDS011;14206;50.202;10.948;2022-11-12T01:58:39;4.28;;;3.88;;
26540;SDS011;14206;50.202;10.948;2022-11-12T02:01:25;4.30;;;3.90;;
26540;SDS011;14206;50.202;10.948;2022-11-12T02:04:10;4.32;;;3.90;;
26540;SDS011;14206;50.202;10.948;2022-11-12T02:06:56;4.68;;;3.80;;
26540;SDS011;14206;50.202;10.948;2022-11-12T02:09:42;4.40;;;3.85;;
26540;SDS011;14206;50.202;10.948;2022-11-12T02:12:27;4.10;;;3.70;;
26540;SDS011;14206;50.202;10.948;2022-11-12T02:15:32;4.38;;;3.95;;
26540;SDS011;14206;50.202;10.948;2022-11-12T02:18:17;4.78;;;4.05;;
26540;SDS011;14206;50.202;10.948;2022-11-12T02:21:04;4.40;;;3.72;;
26540;SDS011;14206;50.202;10.948;2022-11-12T02:26:45;5.43;;;4.07;;
26540;SDS011;14206;50.202;10.948;2022-11-12T02:29:32;8.70;;;4.10;;
26540;SDS011;14206;50.202;10.948;2022-11-12T02:32:18;4.00;;;3.60;;
26540;SDS011;14206;50.202;10.948;2022-11-12T02:37:48;4.03;;;3.63;;
26540;SDS011;14206;50.202;10.948;2022-11-12T02:40:34;4.55;;;4.15;;
26540;SDS011;14206;50.202;10.948;2022-11-12T02:43:19;4.30;;;3.90;;
26540;SDS011;14206;50.202;10.948;2022-11-12T02:46:05;6.07;;;3.90;;
26540;SDS011;14206;50.202;10.948;2022-11-12T02:48:51;4.07;;;3.67;;
26540;SDS011;14206;50.202;10.948;2022-11-12T02:51:36;3.63;;;3.33;;
26540;SDS011;14206;50.202;10.948;2022-11-12T02:54:22;3.65;;;3.35;;
26540;SDS011;14206;50.202;10.948;2022-11-12T02:57:14;4.00;;;3.60;;
26540;SDS011;14206;50.202;10.948;2022-11-12T02:59:59;3.90;;;3.50;;
26540;SDS011;14206;50.202;10.948;2022-11-12T03:02:45;3.50;;;3.20;;
26540;SDS011;14206;50.202;10.948;2022-11-12T03:05:43;4.10;;;3.67;;
26540;SDS011;14206;50.202;10.948;2022-11-12T03:08:29;4.43;;;4.00;;
26540;SDS011;14206;50.202;10.948;2022-11-12T03:11:15;3.70;;;3.25;;
26540;SDS011;14206;50.202;10.948;2022-11-12T03:14:01;4.30;;;3.38;;
26540;SDS011;14206;50.202;10.948;2022-11-12T03:16:47;4.03;;;3.63;;
26540;SDS011;14206;50.202;10.948;2022-11-12T03:19:32;3.83;;;3.47;;
26540;SDS011;14206;50.202;10.948;2022-11-12T03:22:17;4.50;;;4.10;;
26540;SDS011;14206;50.202;10.948;2022-11-12T03:25:03;4.78;;;4.28;;
26540;SDS011;14206;50.202;10.948;2022-11-12T03:27:55;4.70;;;4.30;;
26540;SDS011;14206;50.202;10.948;2022-11-12T03:30:42;4.25;;;3.85;;
26540;SDS011;14206;50.202;10.948;2022-11-12T03:33:28;3.65;;;3.35;;
26540;SDS011;14206;50.202;10.948;2022-11-12T03:36:13;4.10;;;3.70;;
26540;SDS011;14206;50.202;10.948;2022-11-12T03:38:59;3.60;;;3.30;;
26540;SDS011;14206;50.202;10.948;2022-11-12T03:41:44;3.97;;;3.58;;
26540;SDS011;14206;50.202;10.948;2022-11-12T03:44:30;3.95;;;3.53;;
26540;SDS011;14206;50.202;10.948;2022-11-12T03:47:15;4.10;;;3.65;;
26540;SDS011;14206;50.202;10.948;2022-11-12T03:50:01;3.92;;;3.53;;
26540;SDS011;14206;50.202;10.948;2022-11-12T03:52:47;4.07;;;3.63;;
26540;SDS011;14206;50.202;10.948;2022-11-12T03:55:34;4.03;;;3.63;;
26540;SDS011;14206;50.202;10.948;2022-11-12T03:58:19;3.70;;;3.40;;
26540;SDS011;14206;50.202;10.948;2022-11-12T04:01:05;3.40;;;3.05;;
26540;SDS011;14206;50.202;10.948;2022-11-12T04:03:50;3.28;;;2.97;;
26540;SDS011;14206;50.202;10.948;2022-11-12T04:06:36;3.53;;;3.22;;
26540;SDS011;14206;50.202;10.948;2022-11-12T04:09:40;3.40;;;3.10;;
26540;SDS011;14206;50.202;10.948;2022-11-12T04:12:25;3.55;;;3.25;;
26540;SDS011;14206;50.202;10.948;2022-11-12T04:15:29;4.47;;;3.45;;
26540;SDS011;14206;50.202;10.948;2022-11-12T04:18:15;4.43;;;3.30;;
26540;SDS011;14206;50.202;10.948;2022-11-12T04:21:35;3.50;;;3.00;;
26540;SDS011;14206;50.202;10.948;2022-11-12T04:24:35;3.20;;;2.90;;
26540;SDS011;14206;50.202;10.948;2022-11-12T04:27:40;3.35;;;3.05;;
26540;SDS011;14206;50.202;10.948;2022-11-12T04:30:26;3.20;;;2.90;;
26540;SDS011;14206;50.202;10.948;2022-11-12T04:35:56;3.30;;;3.00;;
26540;SDS011;14206;50.202;10.948;2022-11-12T04:38:42;3.20;;;2.90;;
26540;SDS011;14206;50.202;10.948;2022-11-12T04:41:27;4.13;;;2.80;;
26540;SDS011;14206;50.202;10.948;2022-11-12T04:44:31;3.00;;;2.70;;
26540;SDS011;14206;50.202;10.948;2022-11-12T04:47:41;2.70;;;2.50;;
26540;SDS011;14206;50.202;10.948;2022-11-12T04:50:30;3.07;;;2.77;;
26540;SDS011;14206;50.202;10.948;2022-11-12T04:53:15;2.75;;;2.55;;
26540;SDS011;14206;50.202;10.948;2022-11-12T04:56:01;2.90;;;2.60;;
26540;SDS011;14206;50.202;10.948;2022-11-12T04:58:47;2.85;;;2.63;;
26540;SDS011;14206;50.202;10.948;2022-11-12T05:01:32;3.25;;;2.95;;
26540;SDS011;14206;50.202;10.948;2022-11-12T05:04:17;3.30;;;3.00;;
26540;SDS011;14206;50.202;10.948;2022-11-12T05:07:03;2.97;;;2.67;;
26540;SDS011;14206;50.202;10.948;2022-11-12T05:09:48;3.20;;;2.90;;
26540;SDS011;14206;50.202;10.948;2022-11-12T05:12:34;2.78;;;2.50;;
26540;SDS011;14206;50.202;10.948;2022-11-12T05:15:19;2.80;;;2.60;;
26540;SDS011;14206;50.202;10.948;2022-11-12T05:18:05;3.05;;;2.75;;
26540;SDS011;14206;50.202;10.948;2022-11-12T05:20:51;2.97;;;2.67;;
26540;SDS011;14206;50.202;10.948;2022-11-12T05:23:37;2.90;;;2.63;;
26540;SDS011;14206;50.202;10.948;2022-11-12T05:26:22;2.90;;;2.70;;
26540;SDS011;14206;50.202;10.948;2022-11-12T05:29:08;2.75;;;2.55;;
26540;SDS011;14206;50.202;10.948;2022-11-12T05:31:54;3.90;;;3.03;;
26540;SDS011;14206;50.202;10.948;2022-11-12T05:34:39;2.72;;;2.53;;
26540;SDS011;14206;50.202;10.948;2022-11-12T05:37:25;5.55;;;5.05;;
26540;SDS011;14206;50.202;10.948;2022-11-12T05:40:11;3.50;;;3.20;;
26540;SDS011;14206;50.202;10.948;2022-11-12T05:42:57;3.85;;;3.15;;
26540;SDS011;14206;50.202;10.948;2022-11-12T05:45:43;3.63;;;3.33;;
26540;SDS011;14206;50.202;10.948;2022-11-12T05:48:28;3.28;;;2.97;;
26540;SDS011;14206;50.202;10.948;2022-11-12T05:51:15;3.20;;;2.90;;
26540;SDS011;14206;50.202;10.948;2022-11-12T05:54:00;3.10;;;2.80;;
26540;SDS011;14206;50.202;10.948;2022-11-12T05:56:46;3.00;;;2.70;;
26540;SDS011;14206;50.202;10.948;2022-11-12T05:59:32;3.60;;;3.30;;
26540;SDS011;14206;50.202;10.948;2022-11-12T06:02:17;2.83;;;2.60;;
26540;SDS011;14206;50.202;10.948;2022-11-12T06:05:02;2.88;;;2.58;;
26540;SDS011;14206;50.202;10.948;2022-11-12T06:07:48;3.03;;;2.55;;
26540;SDS011;14206;50.202;10.948;2022-11-12T06:10:33;2.75;;;2.55;;
26540;SDS011;14206;50.202;10.948;2022-11-12T06:13:19;3.63;;;3.33;;
26540;SDS011;14206;50.202;10.948;2022-11-12T06:16:06;4.80;;;3.22;;
26540;SDS011;14206;50.202;10.948;2022-11-12T06:18:52;3.17;;;2.78;;
26540;SDS011;14206;50.202;10.948;2022-11-12T06:21:38;2.97;;;2.67;;
26540;SDS011;14206;50.202;10.948;2022-11-12T06:24:24;2.63;;;2.42;;
26540;SDS011;14206;50.202;10.948;2022-11-12T06:27:17;2.50;;;2.30;;
26540;SDS011;14206;50.202;10.948;2022-11-12T06:30:03;6.40;;;2.60;;
26540;SDS011;14206;50.202;10.948;2022-11-12T06:32:49;2.70;;;2.50;;
26540;SDS011;14206;50.202;10.948;2022-11-12T06:35:35;2.50;;;2.30;;
26540;SDS011;14206;50.202;10.948;2022-11-12T06:38:26;2.88;;;2.63;;
26540;SDS011;14206;50.202;10.948;2022-11-12T06:41:20;2.67;;;2.45;;
26540;SDS011;14206;50.202;10.948;2022-11-12T06:44:10;2.28;;;2.08;;
26540;SDS011;14206;50.202;10.948;2022-11-12T06:46:56;2.47;;;2.28;;
26540;SDS011;14206;50.202;10.948;2022-11-12T06:49:41;3.00;;;2.28;;
26540;SDS011;14206;50.202;10.948;2022-11-12T06:52:27;2.78;;;2.55;;
26540;SDS011;14206;50.202;10.948;2022-11-12T06:55:12;2.40;;;2.13;;
26540;SDS011;14206;50.202;10.948;2022-11-12T06:57:57;2.40;;;2.20;;
26540;SDS011;14206;50.202;10.948;2022-11-12T07:00:43;2.28;;;2.08;;
26540;SDS011;14206;50.202;10.948;2022-11-12T07:03:28;2.30;;;2.10;;
26540;SDS011;14206;50.202;10.948;2022-11-12T07:06:14;2.10;;;1.88;;
26540;SDS011;14206;50.202;10.948;2022-11-12T07:09:04;2.15;;;1.98;;
26540;SDS011;14206;50.202;10.948;2022-11-12T07:11:49;2.28;;;2.08;;
26540;SDS011;14206;50.202;10.948;2022-11-12T07:14:35;2.05;;;1.85;;
26540;SDS011;14206;50.202;10.948;2022-11-12T07:17:21;2.30;;;2.10;;
26540;SDS011;14206;50.202;10.948;2022-11-12T07:20:06;1.75;;;1.65;;
26540;SDS011;14206;50.202;10.948;2022-11-12T07:22:52;1.88;;;1.77;;
26540;SDS011;14206;50.202;10.948;2022-11-12T07:25:37;2.17;;;1.80;;
26540;SDS011;14206;50.202;10.948;2022-11-12T07:28:23;2.40;;;2.20;;
26540;SDS011;14206;50.202;10.948;2022-11-12T07:31:10;2.20;;;2.00;;
26540;SDS011;14206;50.202;10.948;2022-11-12T07:33:57;2.38;;;2.17;;
26540;SDS011;14206;50.202;10.948;2022-11-12T07:36:42;2.20;;;2.00;;
26540;SDS011;14206;50.202;10.948;2022-11-12T07:39:28;2.30;;;2.10;;
26540;SDS011;14206;50.202;10.948;2022-11-12T07:42:14;2.20;;;2.00;;
26540;SDS011;14206;50.202;10.948;2022-11-12T07:44:59;2.35;;;2.15;;
26540;SDS011;14206;50.202;10.948;2022-11-12T07:47:45;2.10;;;1.90;;
26540;SDS011;14206;50.202;10.948;2022-11-12T07:50:31;1.67;;;1.58;;
26540;SDS011;14206;50.202;10.948;2022-11-12T07:53:16;1.95;;;1.80;;
26540;SDS011;14206;50.202;10.948;2022-11-12T07:56:02;2.20;;;2.00;;
26540;SDS011;14206;50.202;10.948;2022-11-12T07:58:48;2.28;;;2.08;;
26540;SDS011;14206;50.202;10.948;2022-11-12T08:01:38;2.45;;;2.22;;
26540;SDS011;14206;50.202;10.948;2022-11-12T08:04:24;3.15;;;2.58;;
26540;SDS011;14206;50.202;10.948;2022-11-12T08:07:09;2.53;;;2.28;;
26540;SDS011;14206;50.202;10.948;2022-11-12T08:09:55;2.40;;;2.20;;
26540;SDS011;14206;50.202;10.948;2022-11-12T08:12:40;2.65;;;2.30;;
26540;SDS011;14206;50.202;10.948;2022-11-12T08:15:26;2.90;;;2.60;;
26540;SDS011;14206;50.202;10.948;2022-11-12T08:18:12;4.03;;;2.40;;
26540;SDS011;14206;50.202;10.948;2022-11-12T08:21:01;2.50;;;2.30;;
26540;SDS011;14206;50.202;10.948;2022-11-12T08:23:48;2.55;;;2.35;;
26540;SDS011;14206;50.202;10.948;2022-11-12T08:26:34;2.50;;;2.03;;
26540;SDS011;14206;50.202;10.948;2022-11-12T08:29:20;2.10;;;1.90;;
26540;SDS011;14206;50.202;10.948;2022-11-12T08:32:07;2.53;;;2.33;;
26540;SDS011;14206;50.202;10.948;2022-11-12T08:37:37;3.03;;;2.73;;
26540;SDS011;14206;50.202;10.948;2022-11-12T08:40:23;3.33;;;2.80;;
26540;SDS011;14206;50.202;10.948;2022-11-12T08:43:09;3.55;;;3.13;;
26540;SDS011;14206;50.202;10.948;2022-11-12T08:45:56;4.95;;;2.78;;
26540;SDS011;14206;50.202;10.948;2022-11-12T08:48:43;3.17;;;2.50;;
26540;SDS011;14206;50.202;10.948;2022-11-12T08:51:28;4.43;;;2.97;;
26540;SDS011;14206;50.202;10.948;2022-11-12T08:54:14;2.80;;;2.50;;
26540;SDS011;14206;50.202;10.948;2022-11-12T08:56:59;2.33;;;2.13;;
26540;SDS011;14206;50.202;10.948;2022-11-12T08:59:44;2.80;;;2.53;;
26540;SDS011;14206;50.202;10.948;2022-11-12T09:02:30;2.60;;;2.40;;
26540;SDS011;14206;50.202;10.948;2022-11-12T09:05:15;1.95;;;1.85;;
26540;SDS011;14206;50.202;10.948;2022-11-12T09:08:10;2.55;;;2.25;;
26540;SDS011;14206;50.202;10.948;2022-11-12T09:10:57;2.45;;;2.25;;
26540;SDS011;14206;50.202;10.948;2022-11-12T09:13:43;3.65;;;2.80;;
26540;SDS011;14206;50.202;10.948;2022-11-12T09:16:28;2.70;;;2.50;;
26540;SDS011;14206;50.202;10.948;2022-11-12T09:19:14;2.88;;;2.53;;
26540;SDS011;14206;50.202;10.948;2022-11-12T09:21:59;3.28;;;2.97;;
26540;SDS011;14206;50.202;10.948;2022-11-12T09:24:45;3.17;;;2.85;;
26540;SDS011;14206;50.202;10.948;2022-11-12T09:27:30;3.17;;;2.88;;
26540;SDS011;14206;50.202;10.948;2022-11-12T09:30:16;3.15;;;2.85;;
26540;SDS011;14206;50.202;10.948;2022-11-12T09:33:03;5.18;;;3.20;;
26540;SDS011;14206;50.202;10.948;2022-11-12T09:35:49;3.28;;;2.80;;
26540;SDS011;14206;50.202;10.948;2022-11-12T09:38:34;3.35;;;3.05;;
26540;SDS011;14206;50.202;10.948;2022-11-12T09:44:09;3.15;;;2.85;;
26540;SDS011;14206;50.202;10.948;2022-11-12T09:52:56;3.05;;;2.53;;
26540;SDS011;14206;50.202;10.948;2022-11-12T09:55:48;2.40;;;2.20;;
26540;SDS011;14206;50.202;10.948;2022-11-12T09:58:34;3.47;;;2.92;;
26540;SDS011;14206;50.202;10.948;2022-11-12T10:16:52;3.40;;;3.00;;
26540;SDS011;14206;50.202;10.948;2022-11-12T10:19:56;3.85;;;3.45;;
26540;SDS011;14206;50.202;10.948;2022-11-12T10:26:01;4.90;;;3.50;;
26540;SDS011;14206;50.202;10.948;2022-11-12T10:28:58;4.15;;;3.45;;
26540;SDS011;14206;50.202;10.948;2022-11-12T10:32:23;4.97;;;3.75;;
26540;SDS011;14206;50.202;10.948;2022-11-12T10:38:01;6.53;;;5.22;;
26540;SDS011;14206;50.202;10.948;2022-11-12T10:40:51;5.63;;;4.40;;
26540;SDS011;14206;50.202;10.948;2022-11-12T10:43:36;4.05;;;3.65;;
26540;SDS011;14206;50.202;10.948;2022-11-12T10:46:26;4.63;;;3.97;;
26540;SDS011;14206;50.202;10.948;2022-11-12T10:51:58;3.38;;;3.08;;
26540;SDS011;14206;50.202;10.948;2022-11-12T10:54:43;3.28;;;2.97;;
26540;SDS011;14206;50.202;10.948;2022-11-12T10:57:29;2.90;;;2.60;;
26540;SDS011;14206;50.202;10.948;2022-11-12T11:00:18;2.50;;;2.30;;
26540;SDS011;14206;50.202;10.948;2022-11-12T11:03:26;2.90;;;2.50;;
26540;SDS011;14206;50.202;10.948;2022-11-12T11:09:08;3.33;;;3.03;;
26540;SDS011;14206;50.202;10.948;2022-11-12T11:12:01;5.88;;;5.28;;
26540;SDS011;14206;50.202;10.948;2022-11-12T11:14:47;6.53;;;5.15;;
26540;SDS011;14206;50.202;10.948;2022-11-12T11:17:51;6.18;;;5.50;;
26540;SDS011;14206;50.202;10.948;2022-11-12T11:20:43;5.63;;;5.03;;
26540;SDS011;14206;50.202;10.948;2022-11-12T11:23:39;4.93;;;4.40;;
26540;SDS011;14206;50.202;10.948;2022-11-12T11:26:41;5.50;;;4.28;;
26540;SDS011;14206;50.202;10.948;2022-11-12T11:39:17;4.57;;;4.10;;
26540;SDS011;14206;50.202;10.948;2022-11-12T11:45:26;3.70;;;3.30;;
26540;SDS011;14206;50.202;10.948;2022-11-12T11:48:35;3.92;;;3.38;;
26540;SDS011;14206;50.202;10.948;2022-11-12T11:51:55;3.00;;;2.70;;
26540;SDS011;14206;50.202;10.948;2022-11-12T11:54:58;3.30;;;2.78;;
26540;SDS011;14206;50.202;10.948;2022-11-12T11:57:57;3.28;;;2.92;;
26540;SDS011;14206;50.202;10.948;2022-11-12T12:07:17;2.83;;;2.63;;
26540;SDS011;14206;50.202;10.948;2022-11-12T12:10:23;2.73;;;2.53;;
26540;SDS011;14206;50.202;10.948;2022-11-12T12:16:26;3.72;;;3.28;;
26540;SDS011;14206;50.202;10.948;2022-11-12T12:22:03;3.40;;;3.10;;
26540;SDS011;14206;50.202;10.948;2022-11-12T12:24:57;3.20;;;2.90;;
26540;SDS011;14206;50.202;10.948;2022-11-12T12:28:04;3.72;;;3.10;;
26540;SDS011;14206;50.202;10.948;2022-11-12T12:31:16;3.75;;;2.95;;
26540;SDS011;14206;50.202;10.948;2022-11-12T12:34:13;2.65;;;2.45;;
26540;SDS011;14206;50.202;10.948;2022-11-12T12:37:04;3.35;;;2.92;;
26540;SDS011;14206;50.202;10.948;2022-11-12T12:40:16;2.88;;;2.60;;
26540;SDS011;14206;50.202;10.948;2022-11-12T12:43:19;3.78;;;3.05;;
26540;SDS011;14206;50.202;10.948;2022-11-12T12:46:08;3.60;;;3.20;;
26540;SDS011;14206;50.202;10.948;2022-11-12T12:48:56;3.88;;;3.10;;
26540;SDS011;14206;50.202;10.948;2022-11-12T12:51:43;2.85;;;2.60;;
26540;SDS011;14206;50.202;10.948;2022-11-12T12:57:37;3.13;;;2.83;;
26540;SDS011;14206;50.202;10.948;2022-11-12T13:00:39;2.92;;;2.50;;
26540;SDS011;14206;50.202;10.948;2022-11-12T13:06:36;3.28;;;2.97;;
26540;SDS011;14206;50.202;10.948;2022-11-12T13:09:28;3.30;;;3.00;;
26540;SDS011;14206;50.202;10.948;2022-11-12T13:12:15;2.85;;;2.63;;
26540;SDS011;14206;50.202;10.948;2022-11-12T13:15:12;3.10;;;2.75;;
26540;SDS011;14206;50.202;10.948;2022-11-12T13:17:59;2.58;;;2.38;;
26540;SDS011;14206;50.202;10.948;2022-11-12T13:21:05;2.60;;;2.38;;
26540;SDS011;14206;50.202;10.948;2022-11-12T13:23:58;2.80;;;2.50;;
26540;SDS011;14206;50.202;10.948;2022-11-12T13:29:40;2.45;;;2.25;;
26540;SDS011;14206;50.202;10.948;2022-11-12T13:41:03;3.20;;;2.90;;
26540;SDS011;14206;50.202;10.948;2022-11-12T13:43:54;4.05;;;2.83;;
26540;SDS011;14206;50.202;10.948;2022-11-12T13:46:40;3.40;;;3.05;;
26540;SDS011;14206;50.202;10.948;2022-11-12T13:49:28;3.75;;;3.20;;
26540;SDS011;14206;50.202;10.948;2022-11-12T13:52:14;4.07;;;3.67;;
26540;SDS011;14206;50.202;10.948;2022-11-12T13:55:05;5.93;;;4.47;;
26540;SDS011;14206;50.202;10.948;2022-11-12T13:57:56;5.25;;;4.72;;
26540;SDS011;14206;50.202;10.948;2022-11-12T14:00:49;5.07;;;4.40;;
26540;SDS011;14206;50.202;10.948;2022-11-12T14:03:43;5.65;;;4.50;;
26540;SDS011;14206;50.202;10.948;2022-11-12T14:16:12;3.58;;;3.25;;
26540;SDS011;14206;50.202;10.948;2022-11-12T14:19:25;3.40;;;3.10;;
26540;SDS011;14206;50.202;10.948;2022-11-12T14:22:22;3.13;;;2.83;;
26540;SDS011;14206;50.202;10.948;2022-11-12T14:25:12;3.60;;;3.30;;
26540;SDS011;14206;50.202;10.948;2022-11-12T14:28:01;4.18;;;3.00;;
26540;SDS011;14206;50.202;10.948;2022-11-12T14:30:47;3.10;;;2.80;;
26540;SDS011;14206;50.202;10.948;2022-11-12T14:33:32;2.92;;;2.67;;
26540;SDS011;14206;50.202;10.948;2022-11-12T14:36:18;2.92;;;2.70;;
26540;SDS011;14206;50.202;10.948;2022-11-12T14:39:04;3.63;;;2.90;;
26540;SDS011;14206;50.202;10.948;2022-11-12T14:41:50;4.00;;;3.47;;
26540;SDS011;14206;50.202;10.948;2022-11-12T14:44:37;5.15;;;3.92;;
26540;SDS011;14206;50.202;10.948;2022-11-12T14:47:23;5.20;;;4.40;;
26540;SDS011;14206;50.202;10.948;2022-11-12T14:53:08;5.40;;;4.40;;
26540;SDS011;14206;50.202;10.948;2022-11-12T14:56:11;5.35;;;4.57;;
26540;SDS011;14206;50.202;10.948;2022-11-12T14:59:23;5.28;;;4.68;;
26540;SDS011;14206;50.202;10.948;2022-11-12T15:05:19;5.40;;;4.55;;
26540;SDS011;14206;50.202;10.948;2022-11-12T15:08:09;6.00;;;4.95;;
26540;SDS011;14206;50.202;10.948;2022-11-12T15:10:55;5.72;;;4.80;;
26540;SDS011;14206;50.202;10.948;2022-11-12T15:14:05;7.90;;;5.00;;
26540;SDS011;14206;50.202;10.948;2022-11-12T15:17:05;4.95;;;4.22;;
26540;SDS011;14206;50.202;10.948;2022-11-12T15:19:50;5.40;;;4.50;;
26540;SDS011;14206;50.202;10.948;2022-11-12T15:22:35;5.22;;;4.47;;
26540;SDS011;14206;50.202;10.948;2022-11-12T15:28:21;4.82;;;4.25;;
26540;SDS011;14206;50.202;10.948;2022-11-12T15:31:16;4.65;;;4.03;;
26540;SDS011;14206;50.202;10.948;2022-11-12T15:40:09;5.37;;;4.03;;
26540;SDS011;14206;50.202;10.948;2022-11-12T15:42:59;4.85;;;3.85;;
26540;SDS011;14206;50.202;10.948;2022-11-12T15:45:46;4.07;;;3.45;;
26540;SDS011;14206;50.202;10.948;2022-11-12T15:48:34;4.63;;;3.80;;
26540;SDS011;14206;50.202;10.948;2022-11-12T15:51:19;3.92;;;3.50;;
26540;SDS011;14206;50.202;10.948;2022-11-12T15:54:04;4.43;;;4.00;;
26540;SDS011;14206;50.202;10.948;2022-11-12T15:56:50;4.60;;;4.10;;
26540;SDS011;14206;50.202;10.948;2022-11-12T15:59:35;4.38;;;3.95;;
26540;SDS011;14206;50.202;10.948;2022-11-12T16:02:21;4.85;;;4.15;;
26540;SDS011;14206;50.202;10.948;2022-11-12T16:05:11;5.90;;;4.93;;
26540;SDS011;14206;50.202;10.948;2022-11-12T16:08:00;7.60;;;6.15;;
26540;SDS011;14206;50.202;10.948;2022-11-12T16:10:45;8.05;;;6.07;;
26540;SDS011;14206;50.202;10.948;2022-11-12T16:13:31;6.38;;;5.43;;
26540;SDS011;14206;50.202;10.948;2022-11-12T16:16:17;7.07;;;5.57;;
26540;SDS011;14206;50.202;10.948;2022-11-12T16:19:03;6.78;;;5.75;;
26540;SDS011;14206;50.202;10.948;2022-11-12T16:21:58;8.17;;;6.27;;
26540;SDS011;14206;50.202;10.948;2022-11-12T16:24:44;8.93;;;6.53;;
26540;SDS011;14206;50.202;10.948;2022-11-12T16:27:29;9.95;;;6.53;;
26540;SDS011;14206;50.202;10.948;2022-11-12T16:30:19;9.57;;;6.80;;
26540;SDS011;14206;50.202;10.948;2022-11-12T16:33:09;12.50;;;7.47;;
26540;SDS011;14206;50.202;10.948;2022-11-12T16:35:56;10.98;;;7.63;;
26540;SDS011;14206;50.202;10.948;2022-11-12T16:38:42;10.55;;;7.20;;
26540;SDS011;14206;50.202;10.948;2022-11-12T16:41:28;11.88;;;7.80;;
26540;SDS011;14206;50.202;10.948;2022-11-12T16:44:13;10.77;;;7.57;;
26540;SDS011;14206;50.202;10.948;2022-11-12T16:47:00;11.07;;;7.40;;
26540;SDS011;14206;50.202;10.948;2022-11-12T16:49:47;11.18;;;7.55;;
26540;SDS011;14206;50.202;10.948;2022-11-12T16:52:32;10.13;;;6.97;;
26540;SDS011;14206;50.202;10.948;2022-11-12T16:55:18;10.13;;;6.90;;
26540;SDS011;14206;50.202;10.948;2022-11-12T16:58:04;10.75;;;7.20;;
26540;SDS011;14206;50.202;10.948;2022-11-12T17:00:50;9.70;;;6.55;;
26540;SDS011;14206;50.202;10.948;2022-11-12T17:03:35;14.93;;;8.57;;
26540;SDS011;14206;50.202;10.948;2022-11-12T17:06:21;9.85;;;7.07;;
26540;SDS011;14206;50.202;10.948;2022-11-12T17:09:17;9.43;;;7.05;;
26540;SDS011;14206;50.202;10.948;2022-11-12T17:12:03;7.47;;;6.28;;
26540;SDS011;14206;50.202;10.948;2022-11-12T17:14:48;6.63;;;5.57;;
26540;SDS011;14206;50.202;10.948;2022-11-12T17:17:34;7.03;;;5.57;;
26540;SDS011;14206;50.202;10.948;2022-11-12T17:20:19;6.97;;;5.60;;
26540;SDS011;14206;50.202;10.948;2022-11-12T17:23:05;6.63;;;5.10;;
26540;SDS011;14206;50.202;10.948;2022-11-12T17:25:58;6.45;;;5.20;;
26540;SDS011;14206;50.202;10.948;2022-11-12T17:28:45;5.78;;;4.85;;
26540;SDS011;14206;50.202;10.948;2022-11-12T17:31:32;7.07;;;5.60;;
26540;SDS011;14206;50.202;10.948;2022-11-12T17:34:17;6.95;;;5.63;;
26540;SDS011;14206;50.202;10.948;2022-11-12T17:37:03;6.20;;;4.97;;
26540;SDS011;14206;50.202;10.948;2022-11-12T17:39:48;6.32;;;5.13;;
26540;SDS011;14206;50.202;10.948;2022-11-12T17:42:34;5.63;;;5.03;;
26540;SDS011;14206;50.202;10.948;2022-11-12T17:45:19;14.27;;;7.93;;
26540;SDS011;14206;50.202;10.948;2022-11-12T17:48:05;10.57;;;6.95;;
26540;SDS011;14206;50.202;10.948;2022-11-12T17:50:51;11.07;;;7.60;;
26540;SDS011;14206;50.202;10.948;2022-11-12T17:53:47;10.57;;;7.55;;
26540;SDS011;14206;50.202;10.948;2022-11-12T17:56:32;9.20;;;6.90;;
26540;SDS011;14206;50.202;10.948;2022-11-12T17:59:21;7.82;;;5.95;;
26540;SDS011;14206;50.202;10.948;2022-11-12T18:02:07;7.20;;;5.80;;
26540;SDS011;14206;50.202;10.948;2022-11-12T18:04:57;6.45;;;5.22;;
26540;SDS011;14206;50.202;10.948;2022-11-12T18:07:42;6.95;;;5.60;;
26540;SDS011;14206;50.202;10.948;2022-11-12T18:10:28;5.63;;;4.93;;
26540;SDS011;14206;50.202;10.948;2022-11-12T18:13:13;7.68;;;4.68;;
26540;SDS011;14206;50.202;10.948;2022-11-12T18:16:00;5.80;;;5.10;;
26540;SDS011;14206;50.202;10.948;2022-11-12T18:18:46;7.97;;;5.68;;
26540;SDS011;14206;50.202;10.948;2022-11-12T18:21:32;6.65;;;5.20;;
26540;SDS011;14206;50.202;10.948;2022-11-12T18:24:17;6.13;;;4.70;;
26540;SDS011;14206;50.202;10.948;2022-11-12T18:27:02;7.50;;;5.57;;
26540;SDS011;14206;50.202;10.948;2022-11-12T18:29:48;6.78;;;5.22;;
26540;SDS011;14206;50.202;10.948;2022-11-12T18:32:42;7.43;;;5.43;;
26540;SDS011;14206;50.202;10.948;2022-11-12T18:35:29;7.18;;;5.70;;
26540;SDS011;14206;50.202;10.948;2022-11-12T18:38:14;7.70;;;5.30;;
26540;SDS011;14206;50.202;10.948;2022-11-12T18:41:04;7.03;;;5.43;;
26540;SDS011;14206;50.202;10.948;2022-11-12T18:43:52;8.13;;;6.30;;
26540;SDS011;14206;50.202;10.948;2022-11-12T18:46:38;9.63;;;6.38;;